Time;durP1;ratioP1;P1;durP2;ratioP2;P2;SDS_P1;SDS_P2;PMS_P1;PMS_P2;Temp;Humidity;BMP_temperature;BMP_pressure;BME280_temperature;BME280_humidity;BME280_pressure;Samples;Min_cycle;Max_cycle;Signal;HPM_P1;HPM_P2
2023/08/31 00:02:13;;;;;;;2.58;2.38;;;;;;;;;;5058142;28;20381;-84
2023/08/31 00:04:38;;;;;;;2.90;2.55;;;;;;;;;;5058243;28;20417;-84
2023/08/31 00:07:05;;;;;;;2.37;2.27;;;;;;;;;;5057105;28;20389;-84
2023/08/31 00:09:31;;;;;;;3.00;2.70;;;;;;;;;;5057202;28;20443;-83
2023/08/31 00:11:57;;;;;;;2.30;2.13;;;;;;;;;;5056647;28;20475;-84
2023/08/31 00:14:23;;;;;;;2.17;2.00;;;;;;;;;;5056788;28;20385;-83
2023/08/31 00:16:50;;;;;;;2.40;1.90;;;;;;;;;;5056959;28;20825;-84
2023/08/31 00:19:16;;;;;;;2.15;2.00;;;;;;;;;;5056974;28;20377;-83
2023/08/31 00:21:43;;;;;;;3.30;1.83;;;;;;;;;;5057237;28;20699;-84
2023/08/31 00:24:10;;;;;;;2.00;1.90;;;;;;;;;;5056827;28;20425;-84
2023/08/31 00:26:40;;;;;;;1.73;1.63;;;;;;;;;;5039386;28;20487;-84
2023/08/31 00:29:06;;;;;;;3.40;2.03;;;;;;;;;;5057716;28;20796;-84
2023/08/31 00:31:33;;;;;;;2.08;1.88;;;;;;;;;;5057269;28;20421;-84
2023/08/31 00:34:04;;;;;;;1.90;1.80;;;;;;;;;;5056845;28;20377;-84
2023/08/31 00:36:33;;;;;;;2.70;2.15;;;;;;;;;;5056759;28;20373;-84
2023/08/31 00:39:05;;;;;;;2.53;2.10;;;;;;;;;;5049648;28;20383;-84
2023/08/31 00:41:31;;;;;;;1.80;1.70;;;;;;;;;;5057367;28;20385;-84
2023/08/31 00:43:58;;;;;;;2.47;1.70;;;;;;;;;;5056818;28;20847;-84
2023/08/31 00:46:24;;;;;;;2.55;1.98;;;;;;;;;;5057089;28;20405;-84
2023/08/31 00:48:50;;;;;;;2.00;1.80;;;;;;;;;;5057678;28;20414;-83
2023/08/31 00:51:17;;;;;;;1.90;1.80;;;;;;;;;;5057428;28;20390;-84
2023/08/31 00:53:43;;;;;;;4.30;1.70;;;;;;;;;;5058183;28;20378;-84
2023/08/31 00:56:09;;;;;;;1.85;1.60;;;;;;;;;;5058334;28;20405;-84
2023/08/31 00:58:35;;;;;;;2.22;1.80;;;;;;;;;;5055598;28;20378;-84
2023/08/31 01:01:01;;;;;;;2.50;1.83;;;;;;;;;;5057656;28;20435;-83
2023/08/31 01:03:34;;;;;;;2.40;2.00;;;;;;;;;;5057247;28;20393;-83
2023/08/31 01:06:06;;;;;;;2.03;1.80;;;;;;;;;;5057060;28;20504;-84
2023/08/31 01:08:38;;;;;;;2.75;1.88;;;;;;;;;;5056570;28;20396;-84
2023/08/31 01:11:20;;;;;;;1.90;1.80;;;;;;;;;;5056375;28;20390;-84
2023/08/31 01:13:52;;;;;;;2.08;1.88;;;;;;;;;;5056441;28;20389;-84
2023/08/31 01:16:19;;;;;;;2.90;1.90;;;;;;;;;;5056572;28;20447;-83
2023/08/31 01:18:47;;;;;;;1.67;1.57;;;;;;;;;;5055870;28;20813;-83
2023/08/31 01:21:18;;;;;;;2.00;1.90;;;;;;;;;;5056311;28;20385;-83
2023/08/31 01:23:57;;;;;;;1.92;1.80;;;;;;;;;;5056169;28;20390;-83
2023/08/31 01:26:24;;;;;;;2.20;2.00;;;;;;;;;;5055404;28;20406;-84
2023/08/31 01:28:50;;;;;;;2.55;1.67;;;;;;;;;;5055821;28;20439;-83
2023/08/31 01:31:16;;;;;;;2.10;1.90;;;;;;;;;;5056141;28;20384;-83
2023/08/31 01:33:43;;;;;;;2.07;1.70;;;;;;;;;;5056920;28;20428;-84
2023/08/31 01:36:21;;;;;;;2.00;1.80;;;;;;;;;;5056504;28;20413;-84
2023/08/31 01:38:49;;;;;;;2.15;1.90;;;;;;;;;;5055644;28;20394;-84
2023/08/31 01:41:17;;;;;;;2.22;1.70;;;;;;;;;;5038129;28;20385;-84
2023/08/31 01:43:44;;;;;;;2.05;1.85;;;;;;;;;;5052218;28;20381;-83
2023/08/31 01:46:10;;;;;;;2.50;1.60;;;;;;;;;;5057623;28;20747;-84
2023/08/31 01:48:40;;;;;;;2.25;1.70;;;;;;;;;;5056654;28;20436;-84
2023/08/31 01:51:07;;;;;;;2.10;1.80;;;;;;;;;;5056142;28;20385;-84
2023/08/31 01:53:34;;;;;;;2.00;1.70;;;;;;;;;;5054600;28;20384;-84
2023/08/31 01:56:00;;;;;;;2.17;1.60;;;;;;;;;;5056409;28;20469;-84
2023/08/31 01:58:26;;;;;;;2.53;1.73;;;;;;;;;;5055662;28;20745;-84
2023/08/31 02:00:52;;;;;;;2.00;1.73;;;;;;;;;;5055392;28;20439;-84
2023/08/31 02:03:18;;;;;;;3.40;1.88;;;;;;;;;;5056250;28;20405;-83
2023/08/31 02:05:44;;;;;;;2.30;1.70;;;;;;;;;;5056358;28;20492;-84
2023/08/31 02:08:10;;;;;;;3.63;1.90;;;;;;;;;;5055524;28;20447;-84
2023/08/31 02:10:36;;;;;;;1.92;1.70;;;;;;;;;;5050651;28;20484;-84
2023/08/31 02:13:02;;;;;;;1.75;1.65;;;;;;;;;;5055683;28;20739;-84
2023/08/31 02:15:28;;;;;;;3.00;1.70;;;;;;;;;;5055726;28;20468;-84
2023/08/31 02:17:54;;;;;;;1.95;1.83;;;;;;;;;;5056116;28;20405;-84
2023/08/31 02:20:20;;;;;;;4.03;2.03;;;;;;;;;;5055384;28;20777;-84
2023/08/31 02:22:46;;;;;;;2.90;2.10;;;;;;;;;;5056192;28;20381;-84
2023/08/31 02:25:13;;;;;;;2.45;2.03;;;;;;;;;;5054631;28;20409;-83
2023/08/31 02:27:40;;;;;;;3.50;2.17;;;;;;;;;;5054268;28;20385;-84
2023/08/31 02:30:07;;;;;;;2.30;1.88;;;;;;;;;;5052292;28;20801;-83
2023/08/31 02:32:33;;;;;;;1.90;1.80;;;;;;;;;;5054468;28;20724;-84
2023/08/31 02:34:59;;;;;;;1.50;1.40;;;;;;;;;;5049691;28;20386;-84
2023/08/31 02:37:25;;;;;;;2.05;1.92;;;;;;;;;;5054634;28;20373;-84
2023/08/31 02:39:51;;;;;;;2.40;1.80;;;;;;;;;;5055105;28;20728;-84
2023/08/31 02:42:17;;;;;;;3.22;1.70;;;;;;;;;;5054828;28;20731;-84
2023/08/31 02:44:43;;;;;;;2.35;1.60;;;;;;;;;;5055349;28;20413;-84
2023/08/31 02:47:09;;;;;;;2.17;1.70;;;;;;;;;;5054816;28;20459;-84
2023/08/31 02:49:35;;;;;;;1.95;1.77;;;;;;;;;;5054897;28;20390;-84
2023/08/31 02:52:01;;;;;;;2.40;1.77;;;;;;;;;;5054608;28;20429;-84
2023/08/31 02:54:27;;;;;;;2.17;1.98;;;;;;;;;;5052518;28;20878;-84
2023/08/31 02:56:53;;;;;;;2.25;2.05;;;;;;;;;;5053779;28;20381;-84
2023/08/31 02:59:19;;;;;;;2.60;1.90;;;;;;;;;;5053852;28;20780;-84
2023/08/31 03:01:48;;;;;;;2.78;1.92;;;;;;;;;;5054851;28;20428;-84
2023/08/31 03:04:14;;;;;;;2.88;2.22;;;;;;;;;;5053831;28;20378;-84
2023/08/31 03:06:40;;;;;;;2.75;2.17;;;;;;;;;;5054606;28;20433;-84
2023/08/31 03:09:06;;;;;;;3.08;1.90;;;;;;;;;;5054217;28;20392;-84
2023/08/31 03:11:32;;;;;;;2.20;1.95;;;;;;;;;;5054742;28;20466;-83
2023/08/31 03:13:58;;;;;;;2.27;2.00;;;;;;;;;;5055096;28;20417;-84
2023/08/31 03:16:24;;;;;;;2.42;2.17;;;;;;;;;;5055055;28;20859;-84
2023/08/31 03:18:50;;;;;;;2.53;2.30;;;;;;;;;;5054560;28;20381;-84
2023/08/31 03:21:19;;;;;;;2.42;2.13;;;;;;;;;;5053400;28;20405;-84
2023/08/31 03:23:45;;;;;;;3.75;2.45;;;;;;;;;;5054140;28;20720;-84
2023/08/31 03:26:12;;;;;;;2.27;2.07;;;;;;;;;;5053411;28;20413;-84
2023/08/31 03:28:40;;;;;;;2.70;2.20;;;;;;;;;;5053533;28;20723;-84
2023/08/31 03:31:06;;;;;;;3.03;2.72;;;;;;;;;;5054758;28;20381;-84
2023/08/31 03:33:32;;;;;;;2.42;2.22;;;;;;;;;;5053538;28;20452;-85
2023/08/31 03:36:03;;;;;;;3.17;2.80;;;;;;;;;;5049169;28;20466;-84
2023/08/31 03:38:29;;;;;;;2.80;2.60;;;;;;;;;;5051649;28;20390;-84
2023/08/31 03:40:55;;;;;;;2.63;2.42;;;;;;;;;;5054068;28;20397;-84
2023/08/31 03:43:21;;;;;;;2.50;2.30;;;;;;;;;;5035680;28;20390;-84
2023/08/31 03:45:47;;;;;;;2.92;2.40;;;;;;;;;;5050275;28;20459;-84
2023/08/31 03:48:13;;;;;;;4.00;2.60;;;;;;;;;;5052582;28;20465;-84
2023/08/31 03:50:39;;;;;;;3.10;2.30;;;;;;;;;;5052169;28;20417;-84
2023/08/31 03:53:05;;;;;;;2.30;2.10;;;;;;;;;;5034479;28;20879;-85
2023/08/31 03:55:31;;;;;;;2.45;2.25;;;;;;;;;;5051765;28;20464;-84
2023/08/31 03:57:58;;;;;;;2.72;2.40;;;;;;;;;;5024075;28;20480;-84
2023/08/31 04:00:24;;;;;;;2.33;2.13;;;;;;;;;;5053331;28;20393;-84
2023/08/31 04:02:50;;;;;;;2.63;2.42;;;;;;;;;;5040089;28;20385;-84
2023/08/31 04:05:16;;;;;;;2.70;2.50;;;;;;;;;;5053459;28;20423;-84
2023/08/31 04:07:42;;;;;;;2.80;2.60;;;;;;;;;;5054434;28;20859;-85
2023/08/31 04:10:08;;;;;;;2.85;2.55;;;;;;;;;;5054180;28;20836;-84
2023/08/31 04:12:34;;;;;;;2.70;2.40;;;;;;;;;;5056815;28;20385;-84
2023/08/31 04:15:00;;;;;;;2.75;2.42;;;;;;;;;;5056648;28;20381;-84
2023/08/31 04:17:26;;;;;;;2.80;2.60;;;;;;;;;;5057198;28;20413;-83
2023/08/31 04:19:52;;;;;;;2.72;2.50;;;;;;;;;;5057662;28;20393;-83
2023/08/31 04:22:18;;;;;;;2.47;2.28;;;;;;;;;;5057723;28;20392;-83
2023/08/31 04:24:44;;;;;;;2.40;2.20;;;;;;;;;;5058552;28;20405;-83
2023/08/31 04:27:10;;;;;;;2.72;2.25;;;;;;;;;;5056540;28;20394;-83
2023/08/31 04:29:36;;;;;;;2.72;2.35;;;;;;;;;;5057815;28;20384;-85
2023/08/31 04:32:02;;;;;;;2.58;2.30;;;;;;;;;;5052476;28;20390;-85
2023/08/31 04:34:28;;;;;;;2.38;2.17;;;;;;;;;;5057998;28;20839;-83
2023/08/31 04:36:54;;;;;;;4.43;2.60;;;;;;;;;;5057663;28;20406;-84
2023/08/31 04:39:20;;;;;;;3.20;2.45;;;;;;;;;;5056740;28;20408;-84
2023/08/31 04:41:46;;;;;;;3.30;2.50;;;;;;;;;;5056895;28;20389;-84
2023/08/31 04:44:12;;;;;;;2.63;2.42;;;;;;;;;;5057197;28;20389;-83
2023/08/31 04:46:39;;;;;;;3.30;2.70;;;;;;;;;;5057161;28;20480;-83
2023/08/31 04:49:05;;;;;;;3.10;2.80;;;;;;;;;;5056183;28;20385;-84
2023/08/31 04:51:34;;;;;;;3.70;2.40;;;;;;;;;;5050845;28;20381;-85
2023/08/31 04:54:02;;;;;;;2.25;2.05;;;;;;;;;;5057468;28;20385;-83
2023/08/31 04:56:32;;;;;;;2.67;2.05;;;;;;;;;;5057304;28;20389;-83
2023/08/31 04:58:59;;;;;;;2.50;2.20;;;;;;;;;;5057399;28;20385;-84
2023/08/31 05:01:25;;;;;;;2.53;2.20;;;;;;;;;;5058039;28;20786;-83
2023/08/31 05:03:51;;;;;;;2.88;1.80;;;;;;;;;;5057656;28;20801;-84
2023/08/31 05:06:17;;;;;;;1.90;1.80;;;;;;;;;;5058212;28;20759;-85
2023/08/31 05:08:43;;;;;;;3.15;1.90;;;;;;;;;;5045233;28;20379;-84
2023/08/31 05:11:09;;;;;;;3.33;1.67;;;;;;;;;;5055809;28;20389;-84
2023/08/31 05:13:35;;;;;;;2.80;1.60;;;;;;;;;;5057157;28;20381;-84
2023/08/31 05:16:02;;;;;;;1.98;1.65;;;;;;;;;;5057555;28;20472;-83
2023/08/31 05:18:28;;;;;;;2.28;1.60;;;;;;;;;;5057590;28;20384;-83
2023/08/31 05:20:54;;;;;;;2.30;1.70;;;;;;;;;;5057729;28;20413;-85
2023/08/31 05:23:20;;;;;;;2.80;1.90;;;;;;;;;;5056479;28;20439;-82
2023/08/31 05:25:46;;;;;;;2.22;1.60;;;;;;;;;;5057234;28;20767;-85
2023/08/31 05:28:12;;;;;;;2.60;1.75;;;;;;;;;;5057096;28;20447;-85
2023/08/31 05:30:48;;;;;;;2.00;1.50;;;;;;;;;;5056999;28;20843;-85
2023/08/31 05:33:14;;;;;;;1.67;1.58;;;;;;;;;;5057399;28;20413;-85
2023/08/31 05:35:40;;;;;;;1.90;1.73;;;;;;;;;;5056168;28;20389;-85
2023/08/31 05:38:06;;;;;;;1.97;1.60;;;;;;;;;;5056592;28;20386;-85
2023/08/31 05:40:32;;;;;;;1.95;1.52;;;;;;;;;;5054452;28;20382;-85
2023/08/31 05:42:58;;;;;;;1.98;1.52;;;;;;;;;;5055838;28;20428;-84
2023/08/31 05:45:24;;;;;;;2.33;1.60;;;;;;;;;;5056254;28;20417;-83
2023/08/31 05:47:50;;;;;;;1.73;1.63;;;;;;;;;;5056047;28;21059;-86
2023/08/31 05:50:16;;;;;;;2.00;1.80;;;;;;;;;;5055203;28;20389;-85
2023/08/31 05:52:44;;;;;;;3.13;1.83;;;;;;;;;;5045893;28;20394;-83
2023/08/31 05:55:13;;;;;;;3.00;2.10;;;;;;;;;;5056474;28;20377;-85
2023/08/31 05:57:39;;;;;;;2.25;1.80;;;;;;;;;;5055326;28;20378;-85
2023/08/31 06:00:07;;;;;;;1.70;1.50;;;;;;;;;;5056416;28;20382;-85
2023/08/31 06:02:33;;;;;;;2.25;1.70;;;;;;;;;;5056925;28;20397;-85
2023/08/31 06:04:59;;;;;;;3.03;1.80;;;;;;;;;;5056904;28;20413;-85
2023/08/31 06:07:25;;;;;;;1.90;1.65;;;;;;;;;;5056131;28;20724;-86
2023/08/31 06:09:51;;;;;;;3.00;1.55;;;;;;;;;;5055937;28;20409;-85
2023/08/31 06:12:17;;;;;;;2.58;1.85;;;;;;;;;;5055928;28;20874;-85
2023/08/31 06:14:43;;;;;;;1.70;1.60;;;;;;;;;;5056546;28;20385;-85
2023/08/31 06:17:11;;;;;;;3.25;1.90;;;;;;;;;;5056732;28;20381;-85
2023/08/31 06:19:38;;;;;;;3.55;1.83;;;;;;;;;;5056862;28;20421;-85
2023/08/31 06:22:04;;;;;;;2.37;1.87;;;;;;;;;;5056771;28;20472;-85
2023/08/31 06:24:30;;;;;;;2.70;2.00;;;;;;;;;;5056879;28;20377;-84
2023/08/31 06:26:56;;;;;;;2.65;2.00;;;;;;;;;;5053897;28;20871;-84
2023/08/31 06:29:22;;;;;;;2.95;1.77;;;;;;;;;;5046900;28;20395;-84
2023/08/31 06:31:48;;;;;;;3.83;1.88;;;;;;;;;;5036969;28;20459;-85
2023/08/31 06:34:14;;;;;;;2.80;1.83;;;;;;;;;;5055116;28;20389;-84
2023/08/31 06:36:40;;;;;;;3.75;1.92;;;;;;;;;;5055620;28;20427;-84
2023/08/31 06:39:07;;;;;;;5.22;2.10;;;;;;;;;;5054976;28;20465;-83
2023/08/31 06:41:33;;;;;;;3.50;2.00;;;;;;;;;;5055081;28;20385;-84
2023/08/31 06:43:59;;;;;;;5.20;2.03;;;;;;;;;;5053229;28;20416;-84
2023/08/31 06:46:25;;;;;;;3.10;1.50;;;;;;;;;;5047526;28;20462;-84
2023/08/31 06:48:52;;;;;;;2.13;1.75;;;;;;;;;;5053197;28;20456;-84
2023/08/31 06:51:18;;;;;;;2.88;1.90;;;;;;;;;;5046352;28;20392;-84
2023/08/31 06:53:44;;;;;;;3.47;1.80;;;;;;;;;;5054029;28;20719;-84
2023/08/31 06:56:10;;;;;;;2.33;1.60;;;;;;;;;;5054642;28;20385;-85
2023/08/31 06:58:36;;;;;;;2.97;1.80;;;;;;;;;;5054943;28;20392;-84
2023/08/31 07:01:06;;;;;;;2.30;1.75;;;;;;;;;;5054950;28;20460;-84
2023/08/31 07:03:32;;;;;;;3.00;1.73;;;;;;;;;;5055082;28;20404;-84
2023/08/31 07:05:58;;;;;;;2.85;1.88;;;;;;;;;;5054763;28;20406;-84
2023/08/31 07:08:24;;;;;;;4.50;2.17;;;;;;;;;;5055005;28;20720;-85
2023/08/31 07:10:50;;;;;;;3.33;2.08;;;;;;;;;;5055102;28;20385;-84
2023/08/31 07:13:16;;;;;;;3.47;1.85;;;;;;;;;;5055486;28;20381;-85
2023/08/31 07:15:43;;;;;;;1.95;1.70;;;;;;;;;;5055323;28;20412;-85
2023/08/31 07:18:09;;;;;;;2.45;1.60;;;;;;;;;;5054938;28;20389;-84
2023/08/31 07:20:35;;;;;;;2.90;1.90;;;;;;;;;;5054870;28;20391;-82
2023/08/31 07:23:01;;;;;;;2.40;1.70;;;;;;;;;;5036272;28;20476;-82
2023/08/31 07:25:28;;;;;;;3.22;1.70;;;;;;;;;;5055915;28;20409;-82
2023/08/31 07:27:54;;;;;;;2.97;1.88;;;;;;;;;;5039087;28;20424;-82
2023/08/31 07:30:20;;;;;;;3.00;1.85;;;;;;;;;;5056653;28;20386;-82
2023/08/31 07:32:47;;;;;;;2.60;1.93;;;;;;;;;;5056965;28;20488;-82
2023/08/31 07:35:13;;;;;;;2.83;1.75;;;;;;;;;;5056521;28;20392;-83
2023/08/31 07:37:39;;;;;;;1.90;1.70;;;;;;;;;;5056546;28;20846;-82
2023/08/31 07:40:09;;;;;;;2.78;1.63;;;;;;;;;;5056321;28;20384;-82
2023/08/31 07:42:35;;;;;;;3.42;1.80;;;;;;;;;;5056699;28;20439;-83
2023/08/31 07:45:01;;;;;;;5.82;1.92;;;;;;;;;;5052759;28;20975;-82
2023/08/31 07:47:27;;;;;;;3.80;1.83;;;;;;;;;;5058861;28;20425;-83
2023/08/31 07:49:53;;;;;;;3.20;1.77;;;;;;;;;;5059852;28;20847;-82
2023/08/31 07:52:19;;;;;;;2.67;1.77;;;;;;;;;;5059215;28;20373;-83
2023/08/31 07:54:45;;;;;;;2.75;1.83;;;;;;;;;;5059744;28;20439;-83
2023/08/31 07:57:11;;;;;;;2.47;1.70;;;;;;;;;;5059978;28;20382;-83
2023/08/31 07:59:39;;;;;;;2.63;1.75;;;;;;;;;;5057378;28;20775;-82
2023/08/31 08:02:05;;;;;;;3.33;1.65;;;;;;;;;;5058972;28;20385;-82
2023/08/31 08:04:31;;;;;;;2.92;1.70;;;;;;;;;;5058288;28;20378;-82
2023/08/31 08:06:57;;;;;;;3.22;1.90;;;;;;;;;;5059065;28;20389;-82
2023/08/31 08:09:23;;;;;;;1.55;1.40;;;;;;;;;;5059348;28;20400;-83
2023/08/31 08:11:50;;;;;;;3.63;1.60;;;;;;;;;;5054520;28;20385;-83
2023/08/31 08:14:16;;;;;;;3.28;1.70;;;;;;;;;;5059836;28;20469;-82
2023/08/31 08:16:42;;;;;;;1.90;1.25;;;;;;;;;;5041449;28;20807;-82
2023/08/31 08:19:08;;;;;;;2.53;1.73;;;;;;;;;;5058920;28;20859;-82
2023/08/31 08:21:35;;;;;;;2.75;1.65;;;;;;;;;;5059132;28;20386;-82
2023/08/31 08:24:01;;;;;;;3.00;1.67;;;;;;;;;;5059646;28;20393;-83
2023/08/31 08:26:27;;;;;;;2.03;1.52;;;;;;;;;;5058495;28;20503;-82
2023/08/31 08:28:53;;;;;;;3.10;1.65;;;;;;;;;;5051223;28;20711;-83
2023/08/31 08:31:19;;;;;;;2.22;1.52;;;;;;;;;;5058936;28;20484;-82
2023/08/31 08:33:45;;;;;;;1.93;1.30;;;;;;;;;;5059492;28;20563;-82
2023/08/31 08:36:11;;;;;;;2.00;1.40;;;;;;;;;;5059034;28;20439;-82
2023/08/31 08:38:37;;;;;;;2.70;1.60;;;;;;;;;;5058082;28;20385;-83
2023/08/31 08:41:07;;;;;;;2.00;1.30;;;;;;;;;;5058277;28;20731;-82
2023/08/31 08:43:33;;;;;;;2.03;1.63;;;;;;;;;;5059303;28;20393;-82
2023/08/31 08:46:04;;;;;;;2.58;1.55;;;;;;;;;;5058689;28;20413;-83
2023/08/31 08:48:30;;;;;;;2.42;1.55;;;;;;;;;;5059006;28;20378;-82
2023/08/31 08:50:56;;;;;;;2.10;1.40;;;;;;;;;;5058794;28;20864;-82
2023/08/31 08:53:22;;;;;;;2.33;1.40;;;;;;;;;;5041895;28;20452;-82
2023/08/31 08:55:48;;;;;;;4.20;1.60;;;;;;;;;;5041122;28;20855;-83
2023/08/31 08:58:14;;;;;;;1.85;1.48;;;;;;;;;;5058277;28;20389;-83
2023/08/31 09:00:41;;;;;;;2.90;1.60;;;;;;;;;;5059012;28;20382;-82
2023/08/31 09:03:07;;;;;;;2.83;1.48;;;;;;;;;;5058855;28;20480;-82
2023/08/31 09:05:33;;;;;;;2.40;1.67;;;;;;;;;;5058594;28;20441;-83
2023/08/31 09:08:03;;;;;;;2.28;1.60;;;;;;;;;;5040810;28;20408;-83
2023/08/31 09:10:55;;;;;;;2.13;1.70;;;;;;;;;;5058318;28;20400;-83
2023/08/31 09:13:21;;;;;;;2.75;1.67;;;;;;;;;;5055297;28;20401;-83
2023/08/31 09:15:48;;;;;;;2.83;1.75;;;;;;;;;;5059006;28;20472;-83
2023/08/31 09:18:24;;;;;;;4.13;1.83;;;;;;;;;;5058059;28;20386;-82
2023/08/31 09:20:50;;;;;;;2.97;1.67;;;;;;;;;;5058321;28;20447;-83
2023/08/31 09:23:16;;;;;;;2.65;1.73;;;;;;;;;;5040796;28;20389;-83
2023/08/31 09:25:53;;;;;;;3.35;1.60;;;;;;;;;;5040558;28;20462;-83
2023/08/31 09:28:27;;;;;;;3.42;1.73;;;;;;;;;;5057655;28;20385;-83
2023/08/31 09:30:53;;;;;;;2.13;1.55;;;;;;;;;;5044095;28;20379;-83
2023/08/31 09:33:23;;;;;;;2.83;1.55;;;;;;;;;;5058445;28;20389;-83
2023/08/31 09:35:57;;;;;;;2.55;1.77;;;;;;;;;;5057862;28;20396;-84
2023/08/31 09:38:23;;;;;;;2.97;1.92;;;;;;;;;;5040376;28;20389;-83
2023/08/31 09:40:49;;;;;;;3.10;1.60;;;;;;;;;;5057746;28;20381;-83
2023/08/31 09:43:23;;;;;;;3.08;1.88;;;;;;;;;;5058083;28;20839;-83
2023/08/31 09:45:49;;;;;;;2.83;1.60;;;;;;;;;;5056733;28;20405;-82
2023/08/31 09:48:16;;;;;;;1.85;1.52;;;;;;;;;;5053832;28;20395;-82
2023/08/31 09:50:43;;;;;;;2.38;1.58;;;;;;;;;;5057710;28;20381;-82
2023/08/31 09:53:10;;;;;;;5.30;1.80;;;;;;;;;;5056928;28;20389;-82
2023/08/31 09:55:36;;;;;;;2.23;1.77;;;;;;;;;;5050057;28;20382;-83
2023/08/31 09:58:03;;;;;;;2.03;1.60;;;;;;;;;;5052290;28;20480;-83
2023/08/31 10:00:32;;;;;;;3.10;1.80;;;;;;;;;;5039436;28;20374;-82
2023/08/31 10:03:04;;;;;;;2.05;1.55;;;;;;;;;;5038836;28;20389;-83
2023/08/31 10:05:30;;;;;;;2.70;1.70;;;;;;;;;;5046461;28;20409;-83
2023/08/31 10:07:58;;;;;;;3.30;1.60;;;;;;;;;;5057575;28;20385;-82
2023/08/31 10:10:24;;;;;;;2.97;1.60;;;;;;;;;;5056865;28;20382;-83
2023/08/31 10:12:51;;;;;;;2.13;1.50;;;;;;;;;;5056187;28;20390;-83
2023/08/31 10:15:18;;;;;;;2.72;1.52;;;;;;;;;;5056660;28;20480;-82
2023/08/31 10:17:44;;;;;;;2.63;1.77;;;;;;;;;;5057296;28;20430;-82
2023/08/31 10:20:11;;;;;;;3.38;1.50;;;;;;;;;;5056751;28;20394;-83
2023/08/31 10:22:38;;;;;;;2.95;1.50;;;;;;;;;;5056817;28;20399;-82
2023/08/31 10:25:08;;;;;;;2.83;1.60;;;;;;;;;;5056978;28;20489;-82
2023/08/31 10:27:38;;;;;;;2.20;1.40;;;;;;;;;;5056827;28;20382;-82
2023/08/31 10:30:24;;;;;;;2.88;1.50;;;;;;;;;;5056924;28;20451;-83
2023/08/31 10:33:08;;;;;;;1.75;1.40;;;;;;;;;;5044568;28;20384;-82
2023/08/31 10:35:55;;;;;;;2.30;1.33;;;;;;;;;;5056391;28;20382;-82
2023/08/31 10:38:30;;;;;;;3.83;1.60;;;;;;;;;;5056761;28;20385;-82
2023/08/31 10:41:02;;;;;;;2.28;1.30;;;;;;;;;;5056551;28;20731;-82
2023/08/31 10:43:28;;;;;;;3.63;1.60;;;;;;;;;;5057310;28;20377;-83
2023/08/31 10:45:54;;;;;;;2.80;1.70;;;;;;;;;;5057250;28;20470;-83
2023/08/31 10:48:20;;;;;;;3.20;1.60;;;;;;;;;;5056452;28;20450;-82
2023/08/31 10:50:49;;;;;;;3.83;1.67;;;;;;;;;;5043083;28;20737;-82
2023/08/31 10:53:15;;;;;;;5.22;1.80;;;;;;;;;;5054371;28;20373;-83
2023/08/31 10:55:52;;;;;;;3.03;1.50;;;;;;;;;;5056191;28;20385;-82
2023/08/31 10:58:18;;;;;;;3.47;1.60;;;;;;;;;;5056286;28;20420;-83
2023/08/31 11:00:51;;;;;;;1.98;1.40;;;;;;;;;;5056341;28;20448;-83
2023/08/31 11:03:17;;;;;;;3.25;1.52;;;;;;;;;;5056723;28;20377;-83
2023/08/31 11:05:53;;;;;;;1.73;1.23;;;;;;;;;;5055855;28;20409;-82
2023/08/31 11:08:26;;;;;;;2.95;1.42;;;;;;;;;;5056311;28;20405;-82
2023/08/31 11:10:52;;;;;;;3.40;1.52;;;;;;;;;;5048349;28;20399;-83
2023/08/31 11:13:23;;;;;;;2.75;1.65;;;;;;;;;;5050812;28;20460;-82
2023/08/31 11:15:49;;;;;;;3.03;1.70;;;;;;;;;;5056409;28;20384;-83
2023/08/31 11:18:17;;;;;;;4.85;1.80;;;;;;;;;;5056501;28;20396;-82
2023/08/31 11:20:43;;;;;;;6.18;1.88;;;;;;;;;;5055853;28;20385;-82
2023/08/31 11:23:10;;;;;;;2.78;1.70;;;;;;;;;;5059568;28;20381;-83
2023/08/31 11:25:36;;;;;;;2.97;1.73;;;;;;;;;;5059854;28;20416;-82
2023/08/31 11:28:06;;;;;;;3.63;1.67;;;;;;;;;;5059665;28;20527;-83
2023/08/31 11:30:33;;;;;;;3.03;1.52;;;;;;;;;;5059858;28;20392;-83
2023/08/31 11:33:05;;;;;;;3.00;1.60;;;;;;;;;;5059376;28;20407;-82
2023/08/31 11:35:35;;;;;;;3.53;1.70;;;;;;;;;;5059267;28;20373;-82
2023/08/31 11:38:03;;;;;;;2.85;1.40;;;;;;;;;;5059445;28;20843;-81
2023/08/31 11:40:29;;;;;;;4.15;1.55;;;;;;;;;;5059028;28;20380;-83
2023/08/31 11:42:56;;;;;;;2.10;1.50;;;;;;;;;;5059133;28;20415;-83
2023/08/31 11:45:23;;;;;;;2.20;1.55;;;;;;;;;;5059123;28;20409;-82
2023/08/31 11:47:49;;;;;;;3.17;1.50;;;;;;;;;;5059117;28;20739;-82
2023/08/31 11:50:16;;;;;;;3.05;1.60;;;;;;;;;;5055958;28;20382;-82
2023/08/31 11:52:42;;;;;;;4.18;1.60;;;;;;;;;;5059030;28;20517;-82
2023/08/31 11:55:12;;;;;;;2.73;1.43;;;;;;;;;;5059000;28;20396;-82
2023/08/31 11:57:38;;;;;;;3.45;1.63;;;;;;;;;;5055808;28;20385;-82
2023/08/31 12:00:05;;;;;;;3.65;1.55;;;;;;;;;;5057368;28;20424;-82
2023/08/31 12:02:40;;;;;;;3.83;1.50;;;;;;;;;;5059195;28;20382;-82
2023/08/31 12:05:07;;;;;;;3.83;1.47;;;;;;;;;;5058874;28;20763;-82
2023/08/31 12:07:33;;;;;;;2.97;1.70;;;;;;;;;;5048754;28;20387;-82
2023/08/31 12:10:04;;;;;;;3.50;1.67;;;;;;;;;;5054072;28;20378;-82
2023/08/31 12:12:32;;;;;;;2.70;1.50;;;;;;;;;;5058477;28;20862;-82
2023/08/31 12:15:03;;;;;;;2.88;1.40;;;;;;;;;;5057965;28;20401;-82
2023/08/31 12:17:30;;;;;;;2.10;1.40;;;;;;;;;;5055996;28;20393;-82
2023/08/31 12:20:04;;;;;;;3.17;1.67;;;;;;;;;;5058493;28;20427;-82
2023/08/31 12:22:30;;;;;;;3.33;1.52;;;;;;;;;;5059011;28;20389;-82
2023/08/31 12:24:56;;;;;;;2.50;1.30;;;;;;;;;;5058225;28;20412;-82
2023/08/31 12:27:22;;;;;;;2.88;1.23;;;;;;;;;;5059104;28;20389;-82
2023/08/31 12:29:49;;;;;;;2.45;1.40;;;;;;;;;;5059289;28;20373;-82
2023/08/31 12:32:15;;;;;;;4.80;1.40;;;;;;;;;;5058903;28;20383;-81
2023/08/31 12:34:41;;;;;;;2.22;1.38;;;;;;;;;;5058802;28;20457;-82
2023/08/31 12:37:07;;;;;;;4.05;1.40;;;;;;;;;;5058299;28;20435;-82
2023/08/31 12:39:33;;;;;;;3.40;1.42;;;;;;;;;;5057812;28;20378;-81
2023/08/31 12:41:59;;;;;;;2.80;1.48;;;;;;;;;;5058863;28;20385;-82
2023/08/31 12:44:25;;;;;;;2.63;1.33;;;;;;;;;;5058325;28;20382;-82
2023/08/31 12:46:52;;;;;;;2.78;1.35;;;;;;;;;;5058392;28;20421;-81
2023/08/31 12:49:20;;;;;;;2.72;1.30;;;;;;;;;;5058438;28;20382;-81
2023/08/31 12:51:46;;;;;;;2.42;1.48;;;;;;;;;;5057958;28;20385;-82
2023/08/31 12:54:12;;;;;;;3.40;1.30;;;;;;;;;;5055282;28;20392;-82
2023/08/31 12:56:38;;;;;;;2.07;1.37;;;;;;;;;;5058788;28;20440;-82
2023/08/31 12:59:05;;;;;;;2.78;1.45;;;;;;;;;;5057659;28;20462;-82
2023/08/31 13:01:33;;;;;;;4.22;1.50;;;;;;;;;;5057873;28;20408;-82
2023/08/31 13:03:59;;;;;;;1.85;1.17;;;;;;;;;;5057787;28;20393;-82
2023/08/31 13:06:26;;;;;;;2.58;1.55;;;;;;;;;;5057015;28;20421;-82
2023/08/31 13:08:52;;;;;;;1.97;1.20;;;;;;;;;;5058196;28;20610;-80
2023/08/31 13:11:23;;;;;;;2.00;1.38;;;;;;;;;;5058661;28;20417;-81
2023/08/31 13:13:50;;;;;;;2.08;1.42;;;;;;;;;;5058937;28;20731;-80
2023/08/31 13:16:17;;;;;;;2.67;1.42;;;;;;;;;;5058439;28;20835;-81
2023/08/31 13:18:43;;;;;;;2.10;1.10;;;;;;;;;;5040542;28;20396;-83
2023/08/31 13:21:09;;;;;;;2.27;1.30;;;;;;;;;;5058259;28;20392;-81
2023/08/31 13:23:35;;;;;;;2.17;1.25;;;;;;;;;;5058934;28;20878;-81
2023/08/31 13:26:01;;;;;;;2.85;1.38;;;;;;;;;;5058150;28;20441;-81
2023/08/31 13:28:28;;;;;;;2.42;1.35;;;;;;;;;;5058695;28;20803;-81
2023/08/31 13:31:00;;;;;;;2.17;1.40;;;;;;;;;;5057440;28;20385;-81
2023/08/31 13:33:28;;;;;;;1.92;1.30;;;;;;;;;;5057885;28;20854;-83
2023/08/31 13:35:54;;;;;;;2.15;1.23;;;;;;;;;;5057445;28;20386;-82
2023/08/31 13:38:20;;;;;;;2.33;1.30;;;;;;;;;;5058531;28;20393;-83
2023/08/31 13:40:46;;;;;;;4.50;1.60;;;;;;;;;;5058373;28;20373;-82
2023/08/31 13:43:12;;;;;;;2.15;1.30;;;;;;;;;;5057466;28;20427;-82
2023/08/31 13:45:38;;;;;;;2.80;1.30;;;;;;;;;;5071157;22;20433;-84
2023/08/31 13:48:04;;;;;;;2.22;1.15;;;;;;;;;;5039174;28;20381;-84
2023/08/31 13:50:30;;;;;;;2.30;1.30;;;;;;;;;;5038705;28;20381;-84
2023/08/31 13:52:57;;;;;;;1.88;1.35;;;;;;;;;;5046789;28;20469;-84
2023/08/31 13:55:23;;;;;;;2.63;1.27;;;;;;;;;;5035496;28;20542;-85
2023/08/31 13:57:49;;;;;;;1.65;1.20;;;;;;;;;;5036893;28;20415;-85
2023/08/31 14:00:16;;;;;;;3.95;1.40;;;;;;;;;;5036631;28;20430;-84
2023/08/31 14:02:43;;;;;;;2.10;1.42;;;;;;;;;;5036414;28;20739;-84
2023/08/31 14:05:10;;;;;;;2.90;1.23;;;;;;;;;;5038186;28;20406;-84
2023/08/31 14:07:36;;;;;;;2.55;1.30;;;;;;;;;;5036811;28;20737;-84
2023/08/31 14:10:06;;;;;;;1.92;1.38;;;;;;;;;;5035460;28;20909;-84
2023/08/31 14:12:32;;;;;;;2.78;1.60;;;;;;;;;;5032915;28;20442;-84
2023/08/31 14:14:58;;;;;;;2.45;1.60;;;;;;;;;;5035554;28;20909;-85
2023/08/31 14:17:24;;;;;;;3.13;1.55;;;;;;;;;;5036408;28;20525;-85
2023/08/31 14:19:50;;;;;;;3.90;1.60;;;;;;;;;;5036968;28;20414;-84
2023/08/31 14:22:16;;;;;;;3.55;1.70;;;;;;;;;;5036681;28;20387;-84
2023/08/31 14:24:42;;;;;;;3.03;1.50;;;;;;;;;;5036564;28;20387;-84
2023/08/31 14:27:08;;;;;;;3.60;1.73;;;;;;;;;;5036671;28;20413;-84
2023/08/31 14:29:35;;;;;;;2.47;1.52;;;;;;;;;;5040242;28;20409;-84
2023/08/31 14:32:01;;;;;;;4.60;1.58;;;;;;;;;;5035235;28;20470;-84
2023/08/31 14:34:27;;;;;;;2.53;1.35;;;;;;;;;;5035920;28;20394;-84
2023/08/31 14:36:57;;;;;;;3.50;1.40;;;;;;;;;;5034023;28;20434;-84
2023/08/31 14:39:28;;;;;;;1.67;1.25;;;;;;;;;;5036611;28;20387;-84
2023/08/31 14:41:54;;;;;;;2.95;1.58;;;;;;;;;;5036358;28;20809;-84
2023/08/31 14:44:20;;;;;;;2.53;1.60;;;;;;;;;;5035937;28;20426;-85